Time;durP1;ratioP1;P1;durP2;ratioP2;P2;SDS_P1;SDS_P2;PMS_P1;PMS_P2;Temp;Humidity;BMP_temperature;BMP_pressure;BME280_temperature;BME280_humidity;BME280_pressure;Samples;Min_cycle;Max_cycle;Signal;HPM_P1;HPM_P2
2023/01/04 00:01:52;;;;;;;99.68;41.25;;;;;;;-0.21;86.74;94344.91;4977660;28;20353;-43
2023/01/04 00:04:17;;;;;;;90.70;41.85;;;;;;;-0.30;87.68;94336.81;4982594;28;20041;-44
2023/01/04 00:06:43;;;;;;;78.75;40.15;;;;;;;-0.18;87.76;94344.78;4981782;28;20406;-44
2023/01/04 00:09:08;;;;;;;97.10;42.83;;;;;;;-0.17;87.11;94340.84;4974619;28;20029;-43
2023/01/04 00:11:34;;;;;;;157.15;43.28;;;;;;;-0.42;87.94;94346.66;5012835;28;20026;-44
2023/01/04 00:13:59;;;;;;;207.90;47.53;;;;;;;-0.38;88.93;94355.38;4978138;28;20030;-43
2023/01/04 00:16:27;;;;;;;131.45;42.67;;;;;;;-0.52;89.36;94347.88;4982608;28;20034;-43
2023/01/04 00:18:53;;;;;;;199.88;56.40;;;;;;;-0.39;90.04;94351.16;4985014;28;20447;-44
2023/01/04 00:21:21;;;;;;;206.13;54.67;;;;;;;-0.18;89.70;94349.44;4986268;28;20410;-43
2023/01/04 00:23:48;;;;;;;169.60;44.83;;;;;;;-0.31;89.53;94355.06;4977301;28;20031;-44
2023/01/04 00:26:22;;;;;;;104.78;43.47;;;;;;;-0.23;89.09;94352.78;4982835;28;20054;-43
2023/01/04 00:28:52;;;;;;;275.13;57.97;;;;;;;-0.18;89.36;94352.16;4980104;28;20035;-43
2023/01/04 00:31:18;;;;;;;117.18;41.70;;;;;;;-0.44;89.48;94349.06;4980814;28;20050;-43
2023/01/04 00:33:43;;;;;;;167.43;50.03;;;;;;;-0.47;90.63;94352.69;4981291;28;20549;-43
2023/01/04 00:36:11;;;;;;;87.00;44.05;;;;;;;-0.40;89.87;94351.63;4980737;28;20410;-43
2023/01/04 00:38:37;;;;;;;239.88;64.55;;;;;;;-0.35;89.68;94351.00;4980418;28;20042;-44
2023/01/04 00:41:04;;;;;;;162.05;53.33;;;;;;;-0.09;89.27;94352.88;4979443;28;20022;-43
2023/01/04 00:43:30;;;;;;;254.07;62.60;;;;;;;-0.02;87.85;94347.13;4977561;28;20455;-44
2023/01/04 00:45:55;;;;;;;166.52;54.15;;;;;;;-0.29;88.09;94346.47;4985776;28;20047;-44
2023/01/04 00:48:21;;;;;;;119.70;44.70;;;;;;;-0.24;89.39;94346.59;4987465;28;20034;-44
2023/01/04 00:50:47;;;;;;;115.78;46.75;;;;;;;-0.16;89.08;94358.63;4987352;28;20230;-43
2023/01/04 00:53:13;;;;;;;237.40;52.95;;;;;;;-0.15;89.06;94353.94;4983193;28;20027;-46
2023/01/04 00:55:39;;;;;;;305.00;88.53;;;;;;;-0.05;89.36;94352.72;4984480;28;20109;-44
2023/01/04 00:58:04;;;;;;;173.95;55.60;;;;;;;-0.14;89.93;94348.06;4982590;28;20141;-43
2023/01/04 01:00:32;;;;;;;243.07;82.47;;;;;;;-0.37;89.49;94353.44;4983387;28;20034;-43
2023/01/04 01:02:58;;;;;;;183.90;62.88;;;;;;;-0.58;90.81;94360.53;4982829;28;20030;-43
2023/01/04 01:05:23;;;;;;;219.23;60.60;;;;;;;-0.40;91.53;94365.19;4983956;28;20048;-43
2023/01/04 01:07:49;;;;;;;105.28;43.42;;;;;;;-0.39;90.72;94366.69;4989576;28;20069;-43
2023/01/04 01:10:14;;;;;;;244.05;48.15;;;;;;;-0.41;90.76;94364.41;4980204;28;20233;-43
2023/01/04 01:12:40;;;;;;;125.97;38.42;;;;;;;-0.23;90.59;94361.66;4980650;28;20398;-43
2023/01/04 01:15:06;;;;;;;144.40;41.88;;;;;;;-0.30;90.83;94372.84;4982392;28;20128;-44
2023/01/04 01:17:32;;;;;;;111.57;35.33;;;;;;;-0.07;89.76;94368.72;4985559;28;20827;-43
2023/01/04 01:19:58;;;;;;;108.55;34.20;;;;;;;-0.18;88.91;94361.06;4974828;28;20042;-43
2023/01/04 01:22:23;;;;;;;99.68;29.02;;;;;;;-0.28;89.34;94366.97;4978558;28;20026;-43
2023/01/04 01:24:48;;;;;;;74.00;26.83;;;;;;;-0.38;88.80;94363.53;4991102;28;20413;-43
2023/01/04 01:27:14;;;;;;;100.22;27.65;;;;;;;-0.53;90.00;94368.06;4982655;28;20407;-44
2023/01/04 01:29:39;;;;;;;133.52;33.45;;;;;;;-0.46;90.06;94372.44;4986328;28;20494;-44
2023/01/04 01:32:05;;;;;;;74.50;24.95;;;;;;;-0.39;89.65;94363.97;4980491;28;20470;-43
2023/01/04 01:34:30;;;;;;;62.72;25.10;;;;;;;-0.44;89.24;94361.88;4983255;28;20100;-43
2023/01/04 01:36:56;;;;;;;73.28;28.05;;;;;;;-0.51;89.36;94354.06;4978477;28;20457;-44
2023/01/04 01:39:21;;;;;;;64.60;26.10;;;;;;;-0.50;89.84;94355.56;4981615;28;20076;-44
2023/01/04 01:41:47;;;;;;;54.90;24.23;;;;;;;-0.40;89.97;94352.38;4981926;28;20039;-43
2023/01/04 01:44:12;;;;;;;97.68;26.55;;;;;;;-0.32;88.93;94361.69;4986804;28;20113;-43
2023/01/04 01:46:46;;;;;;;44.60;25.85;;;;;;;-0.41;89.46;94356.28;4986780;28;20038;-43
2023/01/04 01:49:11;;;;;;;101.03;28.35;;;;;;;-0.58;89.12;94357.81;4980022;28;20394;-43
2023/01/04 01:51:37;;;;;;;75.78;27.02;;;;;;;-0.35;89.59;94362.63;4987200;28;20027;-43
2023/01/04 01:54:10;;;;;;;90.63;34.50;;;;;;;-0.52;90.06;94357.97;4973869;28;20117;-44
2023/01/04 01:56:37;;;;;;;90.22;31.25;;;;;;;-0.40;90.08;94357.81;4977294;28;20034;-43
2023/01/04 01:59:03;;;;;;;56.35;26.67;;;;;;;-0.65;90.84;94358.13;4980900;28;20030;-44
2023/01/04 02:01:29;;;;;;;69.65;28.67;;;;;;;-0.63;91.06;94349.56;4983972;28;20030;-43
2023/01/04 02:03:55;;;;;;;60.95;27.77;;;;;;;-0.51;91.57;94343.97;4985407;28;20026;-43
2023/01/04 02:06:25;;;;;;;69.28;24.73;;;;;;;-0.48;90.85;94336.88;4986126;28;20105;-44
2023/01/04 02:08:50;;;;;;;43.00;20.90;;;;;;;-0.12;89.25;94336.75;4983067;28;20041;-44
2023/01/04 02:11:16;;;;;;;40.75;21.88;;;;;;;-0.17;89.57;94343.56;4994573;28;20038;-44
2023/01/04 02:16:52;;;;;;;47.75;24.10;;;;;;;-0.12;88.73;94340.22;4979453;28;20045;-44
2023/01/04 02:19:43;;;;;;;46.50;22.95;;;;;;;0.10;88.11;94339.97;4976291;28;20498;-44
2023/01/04 02:22:45;;;;;;;39.05;22.55;;;;;;;0.11;86.63;94338.75;4977447;28;20030;-44
2023/01/04 02:25:17;;;;;;;43.13;24.63;;;;;;;0.30;87.36;94334.00;4976398;28;20026;-44
2023/01/04 02:27:45;;;;;;;47.13;24.17;;;;;;;0.28;87.18;94336.44;4975683;28;20114;-44
2023/01/04 02:30:41;;;;;;;48.33;24.63;;;;;;;0.23;87.55;94332.38;4982168;28;20546;-45
2023/01/04 02:33:37;;;;;;;46.13;25.95;;;;;;;0.06;88.62;94325.06;4982682;28;20629;-43
2023/01/04 02:36:13;;;;;;;43.80;24.95;;;;;;;0.10;87.47;94331.84;4977348;28;20069;-44
2023/01/04 02:38:51;;;;;;;51.63;25.85;;;;;;;0.10;87.47;94320.97;4980533;28;20034;-43
2023/01/04 02:41:42;;;;;;;42.67;23.47;;;;;;;0.19;87.70;94329.09;4985374;28;20034;-44
2023/01/04 02:47:08;;;;;;;43.70;23.60;;;;;;;0.05;87.81;94329.75;4992297;28;20096;-44
2023/01/04 02:52:19;;;;;;;47.20;25.67;;;;;;;0.42;86.89;94325.63;4981122;28;20422;-43
2023/01/04 02:54:45;;;;;;;49.38;25.85;;;;;;;0.54;86.29;94327.34;4979849;28;20033;-45
2023/01/04 02:57:42;;;;;;;41.38;23.95;;;;;;;0.55;86.43;94322.69;4985303;28;20018;-45
2023/01/04 03:00:13;;;;;;;38.97;21.25;;;;;;;0.35;87.24;94325.97;4995895;28;20084;-45
2023/01/04 03:06:38;;;;;;;35.20;20.70;;;;;;;0.70;87.11;94334.34;4992587;28;20041;-44
2023/01/04 03:09:17;;;;;;;40.72;20.40;;;;;;;0.94;86.28;94323.44;5003911;28;20581;-45
2023/01/04 03:14:47;;;;;;;32.17;18.13;;;;;;;0.71;84.62;94314.84;4999291;28;20041;-47
2023/01/04 03:17:14;;;;;;;37.90;20.05;;;;;;;0.55;85.80;94322.69;4980878;28;20053;-45
2023/01/04 03:19:50;;;;;;;30.92;18.75;;;;;;;0.46;85.76;94325.44;4980230;28;20029;-44
2023/01/04 03:36:25;;;;;;;36.33;22.70;;;;;;;0.12;87.02;94328.66;4980336;28;20066;-45
2023/01/04 03:50:10;;;;;;;34.35;18.40;;;;;;;0.43;87.98;94320.94;5005646;28;19968;-46
2023/01/04 03:52:37;;;;;;;33.65;18.63;;;;;;;0.53;87.54;94327.81;4978312;28;20541;-44
2023/01/04 03:55:04;;;;;;;29.73;17.40;;;;;;;0.61;86.82;94327.00;4985752;28;20494;-44
2023/01/04 03:57:31;;;;;;;36.05;19.83;;;;;;;0.67;85.90;94322.44;4981333;28;20069;-44
2023/01/04 04:00:03;;;;;;;33.88;19.98;;;;;;;0.61;85.96;94324.28;4982019;28;20122;-43
2023/01/04 04:02:29;;;;;;;40.80;22.98;;;;;;;0.57;85.84;94331.13;4983146;28;20537;-43
2023/01/04 04:10:23;;;;;;;55.08;30.70;;;;;;;0.75;86.36;94339.91;4981781;28;20108;-44
2023/01/04 04:12:48;;;;;;;66.30;33.08;;;;;;;0.78;85.20;94341.69;4987743;28;20530;-46
2023/01/04 04:15:14;;;;;;;51.83;28.00;;;;;;;0.68;84.88;94344.94;4980847;28;20025;-43
2023/01/04 04:17:40;;;;;;;54.97;28.05;;;;;;;0.57;86.74;94341.97;4978518;28;20030;-43
2023/01/04 04:20:07;;;;;;;50.58;25.13;;;;;;;0.50;87.02;94342.31;4988884;28;20053;-44
2023/01/04 04:22:32;;;;;;;54.20;27.30;;;;;;;0.72;87.28;94340.06;4987132;28;20421;-45
2023/01/04 04:24:57;;;;;;;41.33;21.85;;;;;;;0.92;86.90;94340.22;4985774;28;20023;-44
2023/01/04 04:27:23;;;;;;;33.63;20.27;;;;;;;0.79;86.02;94347.88;4985656;28;20136;-43
2023/01/04 04:29:48;;;;;;;38.58;22.52;;;;;;;0.83;86.61;94348.44;4988359;28;20031;-43
2023/01/04 04:32:14;;;;;;;43.47;24.30;;;;;;;1.01;85.86;94345.59;4985089;28;20041;-43
2023/01/04 04:34:39;;;;;;;56.78;26.33;;;;;;;0.96;85.17;94345.47;4989949;28;20510;-45
2023/01/04 04:37:05;;;;;;;58.83;28.17;;;;;;;0.96;84.58;94340.03;4983490;28;20053;-45
2023/01/04 04:39:31;;;;;;;71.03;32.30;;;;;;;1.10;85.21;94347.50;4980894;28;20048;-44
2023/01/04 04:41:56;;;;;;;62.38;32.42;;;;;;;1.11;84.34;94340.81;4983428;28;20501;-48
2023/01/04 04:44:21;;;;;;;51.60;28.90;;;;;;;1.00;84.89;94338.66;4988231;28;20025;-44
2023/01/04 04:46:48;;;;;;;53.55;28.05;;;;;;;0.82;85.93;94349.69;4984883;28;20274;-43
2023/01/04 04:49:14;;;;;;;70.28;35.50;;;;;;;0.67;87.87;94349.59;4982535;28;20034;-44
2023/01/04 04:51:40;;;;;;;67.80;36.20;;;;;;;0.81;87.87;94356.31;4976741;28;20037;-44
2023/01/04 04:54:07;;;;;;;62.55;33.22;;;;;;;0.71;88.31;94352.91;4979017;28;20034;-44
2023/01/04 04:56:32;;;;;;;67.97;36.72;;;;;;;0.64;88.11;94353.28;4984010;28;20057;-45
2023/01/04 04:58:58;;;;;;;108.10;49.92;;;;;;;0.91;88.37;94365.91;4976896;28;20046;-44
2023/01/04 05:01:23;;;;;;;109.80;50.53;;;;;;;0.94;87.60;94367.69;4981399;28;20583;-45
2023/01/04 05:03:49;;;;;;;68.53;35.38;;;;;;;1.11;87.31;94362.59;4986344;28;20023;-44
2023/01/04 05:06:14;;;;;;;56.97;30.55;;;;;;;1.20;86.96;94360.56;4986583;28;20026;-45
2023/01/04 05:08:40;;;;;;;50.28;28.35;;;;;;;1.20;86.78;94359.78;4987897;28;20461;-46
2023/01/04 05:11:07;;;;;;;44.83;27.42;;;;;;;1.14;86.69;94377.97;4987122;28;20042;-45
2023/01/04 05:13:32;;;;;;;49.67;26.35;;;;;;;1.32;85.98;94373.13;4988479;28;20027;-44
2023/01/04 05:15:58;;;;;;;67.13;33.22;;;;;;;1.11;86.52;94379.66;4990024;28;20461;-43
2023/01/04 05:18:23;;;;;;;82.30;38.70;;;;;;;0.95;87.83;94379.34;4988448;28;20491;-44
2023/01/04 05:20:49;;;;;;;80.80;35.33;;;;;;;0.84;88.83;94379.88;4984800;28;20025;-44
2023/01/04 05:23:17;;;;;;;61.90;32.13;;;;;;;0.84;88.95;94382.59;4987234;28;20122;-44
2023/01/04 05:25:42;;;;;;;70.63;42.00;;;;;;;1.07;88.36;94383.78;4986450;28;20431;-43
2023/01/04 05:28:09;;;;;;;75.22;38.92;;;;;;;1.06;88.05;94379.56;4982158;28;20402;-44
2023/01/04 05:30:50;;;;;;;57.10;31.77;;;;;;;1.01;88.26;94383.66;4977187;28;20057;-44
2023/01/04 05:33:20;;;;;;;49.88;28.73;;;;;;;0.99;89.38;94383.38;4986493;28;20467;-43
2023/01/04 05:35:45;;;;;;;55.30;32.83;;;;;;;1.13;89.35;94381.91;4982066;28;20037;-44
2023/01/04 05:38:11;;;;;;;63.33;35.88;;;;;;;1.04;88.76;94385.44;4980685;28;20462;-45
2023/01/04 05:40:37;;;;;;;61.72;35.20;;;;;;;1.29;88.48;94384.19;4989403;28;20034;-44
2023/01/04 05:43:02;;;;;;;65.20;36.38;;;;;;;1.04;89.32;94385.44;4978004;28;20026;-45
2023/01/04 05:45:27;;;;;;;64.97;34.22;;;;;;;0.98;90.14;94384.59;4985354;28;20050;-44
2023/01/04 05:47:53;;;;;;;67.05;35.40;;;;;;;1.34;89.64;94380.84;4984506;28;20060;-44
2023/01/04 05:50:20;;;;;;;71.45;38.55;;;;;;;1.23;90.08;94386.06;4980813;28;20018;-44
2023/01/04 05:52:46;;;;;;;76.40;38.55;;;;;;;1.35;89.58;94382.34;4976590;28;20037;-44
2023/01/04 05:55:11;;;;;;;63.58;38.00;;;;;;;1.47;89.02;94384.06;4989388;28;20034;-45
2023/01/04 05:57:37;;;;;;;65.55;36.10;;;;;;;1.47;88.09;94392.22;4986046;28;20029;-46
2023/01/04 06:00:04;;;;;;;61.47;35.60;;;;;;;1.72;88.28;94401.81;4982462;28;20423;-44
2023/01/04 06:02:30;;;;;;;68.15;35.38;;;;;;;1.65;86.84;94396.72;4983989;28;20498;-44
2023/01/04 06:04:56;;;;;;;66.38;34.35;;;;;;;1.88;86.09;94399.38;4987159;28;20057;-45
2023/01/04 06:07:21;;;;;;;67.05;36.65;;;;;;;1.84;85.76;94406.25;4989397;28;20058;-45
2023/01/04 06:09:47;;;;;;;72.45;38.13;;;;;;;1.67;85.93;94400.47;4983983;28;20132;-44
2023/01/04 06:12:13;;;;;;;68.72;36.42;;;;;;;1.68;86.99;94399.28;4986612;28;20037;-45
2023/01/04 06:14:38;;;;;;;77.60;39.65;;;;;;;1.57;87.31;94393.63;4983490;28;20033;-44
2023/01/04 06:17:04;;;;;;;69.60;38.83;;;;;;;1.75;86.99;94396.19;4983933;28;20057;-45
2023/01/04 06:19:30;;;;;;;80.70;43.03;;;;;;;1.78;86.82;94397.19;4983167;28;20421;-45
2023/01/04 06:21:55;;;;;;;90.82;48.20;;;;;;;1.63;88.19;94402.63;4983243;28;20026;-44
2023/01/04 06:24:21;;;;;;;156.52;74.15;;;;;;;1.60;88.16;94403.59;4987456;28;20406;-45
2023/01/04 06:26:47;;;;;;;153.70;79.80;;;;;;;1.44;89.73;94407.50;4980979;28;20042;-45
2023/01/04 06:29:12;;;;;;;144.18;73.55;;;;;;;1.54;89.17;94406.19;4987869;28;20125;-45
2023/01/04 06:31:38;;;;;;;188.60;84.80;;;;;;;1.57;88.83;94406.47;4974682;28;20109;-45
2023/01/04 06:34:04;;;;;;;177.02;79.35;;;;;;;1.69;88.68;94408.19;4980955;28;20031;-43
2023/01/04 06:36:29;;;;;;;152.45;66.95;;;;;;;1.75;88.67;94409.81;4982982;28;20019;-44
2023/01/04 06:38:59;;;;;;;139.68;63.55;;;;;;;1.88;88.01;94410.28;4981792;28;20418;-45
2023/01/04 06:41:25;;;;;;;93.60;42.90;;;;;;;1.74;88.30;94416.44;4982263;28;20088;-44
2023/01/04 06:43:50;;;;;;;90.00;47.58;;;;;;;1.74;88.92;94412.97;4987034;28;20037;-46
2023/01/04 06:46:16;;;;;;;95.22;51.90;;;;;;;1.91;88.33;94411.28;4982969;28;20055;-44
2023/01/04 06:48:41;;;;;;;110.65;53.33;;;;;;;1.89;87.56;94421.91;4983560;28;20022;-44
2023/01/04 06:51:07;;;;;;;93.15;49.85;;;;;;;1.93;87.49;94406.13;4981149;28;20030;-46
2023/01/04 06:53:32;;;;;;;100.82;53.30;;;;;;;1.80;88.52;94411.84;4986109;28;20023;-44
2023/01/04 06:55:58;;;;;;;120.32;60.40;;;;;;;1.82;89.45;94414.84;4976824;28;20244;-46
2023/01/04 06:58:23;;;;;;;110.53;55.75;;;;;;;1.89;89.24;94416.44;4980670;28;20096;-44
2023/01/04 07:00:53;;;;;;;108.07;52.10;;;;;;;2.11;89.03;94420.31;4978838;28;20062;-44
2023/01/04 07:03:18;;;;;;;114.30;56.85;;;;;;;2.10;88.02;94423.53;4985997;28;20030;-45
2023/01/04 07:05:44;;;;;;;124.65;62.97;;;;;;;2.07;88.09;94416.28;4977181;28;20037;-46
2023/01/04 07:08:10;;;;;;;137.80;69.50;;;;;;;2.23;87.96;94426.72;4985407;28;20105;-44
2023/01/04 07:10:36;;;;;;;128.18;64.10;;;;;;;2.23;87.47;94423.97;4980566;28;20172;-45
2023/01/04 07:13:02;;;;;;;122.90;61.50;;;;;;;2.27;87.66;94424.53;4980903;28;20030;-44
2023/01/04 07:15:27;;;;;;;117.25;65.22;;;;;;;2.43;87.65;94426.75;4979515;28;20030;-44
2023/01/04 07:17:53;;;;;;;102.72;58.40;;;;;;;2.50;87.09;94429.09;4981662;28;20029;-44
2023/01/04 07:20:18;;;;;;;109.95;60.22;;;;;;;2.41;87.02;94431.16;4984170;28;20029;-45
2023/01/04 07:22:44;;;;;;;128.02;66.03;;;;;;;2.43;86.36;94431.44;4981318;28;20038;-45
2023/01/04 07:25:09;;;;;;;114.22;62.92;;;;;;;2.51;86.76;94427.88;4983240;28;20026;-45
2023/01/04 07:27:34;;;;;;;136.13;78.25;;;;;;;2.39;87.01;94434.38;4982075;28;20015;-44
2023/01/04 07:30:00;;;;;;;138.52;74.20;;;;;;;2.38;87.54;94437.59;4983849;28;20049;-44
2023/01/04 07:32:26;;;;;;;132.65;75.57;;;;;;;2.28;88.13;94439.66;4984946;28;20426;-47
2023/01/04 07:34:51;;;;;;;136.52;73.07;;;;;;;2.39;88.73;94444.53;4985838;28;20030;-47
2023/01/04 07:37:17;;;;;;;154.48;82.05;;;;;;;2.38;88.00;94435.63;4986939;28;20078;-44
2023/01/04 07:39:42;;;;;;;149.50;80.93;;;;;;;2.39;89.19;94445.28;4977563;28;20042;-43
2023/01/04 07:42:09;;;;;;;152.82;83.07;;;;;;;2.52;88.51;94445.72;4978499;28;20486;-44
2023/01/04 07:44:34;;;;;;;140.23;77.43;;;;;;;2.64;89.13;94449.38;4986700;28;20441;-44
2023/01/04 07:47:00;;;;;;;123.97;70.28;;;;;;;2.69;88.41;94452.19;4980878;28;20030;-45
2023/01/04 07:49:25;;;;;;;118.13;66.35;;;;;;;2.43;89.87;94448.56;4980168;28;20117;-44
2023/01/04 07:51:51;;;;;;;119.28;63.85;;;;;;;2.52;90.61;94448.47;4983279;28;20542;-45
2023/01/04 07:54:17;;;;;;;110.47;59.38;;;;;;;2.66;90.01;94453.16;4977261;28;20100;-46
2023/01/04 07:56:43;;;;;;;111.65;57.05;;;;;;;2.77;89.52;94442.38;4986717;28;20466;-45
2023/01/04 07:59:10;;;;;;;105.30;55.05;;;;;;;2.99;88.49;94442.69;4980344;28;20033;-45
2023/01/04 08:01:37;;;;;;;102.55;49.38;;;;;;;3.06;87.72;94447.00;4979377;28;20069;-45
2023/01/04 08:04:06;;;;;;;99.75;51.53;;;;;;;3.11;86.64;94449.06;4958845;28;20034;-44
2023/01/04 08:06:33;;;;;;;124.30;60.65;;;;;;;3.03;87.60;94453.44;4979092;28;20058;-44
2023/01/04 08:08:58;;;;;;;123.82;67.25;;;;;;;3.04;87.62;94452.19;4980661;28;20502;-45
2023/01/04 08:11:24;;;;;;;129.15;68.85;;;;;;;2.93;87.23;94452.78;4981988;28;20043;-44
2023/01/04 08:13:50;;;;;;;149.38;74.95;;;;;;;2.93;88.29;94452.03;4981044;28;20474;-45
2023/01/04 08:16:21;;;;;;;142.25;71.93;;;;;;;3.14;88.54;94444.63;4985105;28;20053;-46
2023/01/04 08:18:48;;;;;;;164.68;84.20;;;;;;;3.10;88.32;94450.28;4982394;28;20022;-44
2023/01/04 08:21:13;;;;;;;165.52;85.28;;;;;;;3.38;88.16;94445.91;4981534;28;20042;-48
2023/01/04 08:23:39;;;;;;;143.85;79.10;;;;;;;3.32;88.52;94452.53;4981894;28;20034;-46
2023/01/04 08:26:07;;;;;;;143.93;82.00;;;;;;;3.55;87.67;94452.31;4980392;28;20022;-45
2023/01/04 08:28:33;;;;;;;143.40;81.00;;;;;;;3.53;87.75;94454.78;4977046;28;20027;-44
2023/01/04 08:31:03;;;;;;;150.30;80.28;;;;;;;3.77;87.27;94452.59;4980978;28;20137;-44
2023/01/04 08:33:28;;;;;;;155.05;89.25;;;;;;;3.75;87.34;94446.84;4984723;28;20095;-44
2023/01/04 08:35:54;;;;;;;140.75;80.07;;;;;;;3.95;86.59;94440.59;4978076;28;20030;-44
2023/01/04 08:38:19;;;;;;;128.32;71.78;;;;;;;3.99;87.23;94443.88;4978216;28;20026;-45
2023/01/04 08:40:45;;;;;;;132.65;72.40;;;;;;;4.07;87.14;94442.19;4979027;28;20759;-44
2023/01/04 08:43:10;;;;;;;132.55;75.97;;;;;;;4.13;86.06;94443.03;4986183;28;20513;-45
2023/01/04 08:45:35;;;;;;;129.40;70.72;;;;;;;3.97;87.17;94445.56;4984552;28;20054;-44
2023/01/04 08:48:01;;;;;;;127.85;72.47;;;;;;;4.03;87.43;94438.22;4984135;28;20031;-43
2023/01/04 08:50:26;;;;;;;122.05;71.63;;;;;;;4.18;87.07;94444.31;4982880;28;20033;-44
2023/01/04 08:52:52;;;;;;;126.40;69.65;;;;;;;4.29;86.76;94439.69;4982264;28;20030;-45
2023/01/04 08:55:17;;;;;;;130.43;72.18;;;;;;;4.53;85.89;94445.59;4984882;28;20076;-48
2023/01/04 08:57:43;;;;;;;125.10;73.90;;;;;;;4.50;85.95;94454.75;4982651;28;20030;-44
2023/01/04 09:00:09;;;;;;;133.70;74.13;;;;;;;4.62;85.74;94450.13;4978819;28;20061;-44
2023/01/04 09:02:34;;;;;;;126.95;70.13;;;;;;;4.74;85.71;94454.47;4980192;28;20681;-44
2023/01/04 09:05:02;;;;;;;115.00;68.20;;;;;;;4.73;85.01;94452.97;4980826;28;20018;-44
2023/01/04 09:07:29;;;;;;;103.05;63.60;;;;;;;4.78;85.75;94451.50;4984051;28;20220;-44
2023/01/04 09:09:55;;;;;;;111.68;66.15;;;;;;;4.66;86.93;94456.13;4979842;28;20029;-44
2023/01/04 09:12:21;;;;;;;107.65;59.72;;;;;;;4.51;88.24;94441.84;4985277;28;20034;-46
2023/01/04 09:14:46;;;;;;;104.68;63.78;;;;;;;4.61;88.86;94445.91;4949273;28;20535;-44
2023/01/04 09:17:12;;;;;;;102.82;63.05;;;;;;;4.64;90.42;94431.25;4997446;28;20025;-46
2023/01/04 09:19:37;;;;;;;84.25;54.35;;;;;;;4.82;91.56;94441.84;4983685;28;20084;-46
2023/01/04 09:22:03;;;;;;;84.68;53.50;;;;;;;5.08;90.71;94447.22;4983916;28;20033;-44
2023/01/04 09:24:28;;;;;;;99.22;61.53;;;;;;;5.09;89.93;94433.03;4984146;28;20026;-44
2023/01/04 09:26:54;;;;;;;99.32;58.35;;;;;;;5.22;89.26;94438.06;4983690;28;20564;-43
2023/01/04 09:29:19;;;;;;;94.63;58.70;;;;;;;5.39;88.56;94436.19;4986784;28;20437;-44
2023/01/04 09:31:45;;;;;;;102.35;61.00;;;;;;;5.24;88.41;94422.66;4984804;28;20026;-45
2023/01/04 09:34:11;;;;;;;97.72;58.10;;;;;;;5.51;88.50;94410.34;4984939;28;20033;-45
2023/01/04 09:36:37;;;;;;;74.22;44.40;;;;;;;5.71;88.22;94425.84;4983481;28;20027;-45
2023/01/04 09:39:02;;;;;;;55.13;34.63;;;;;;;5.82;88.73;94412.19;4984495;28;20130;-44
2023/01/04 09:41:30;;;;;;;44.22;26.75;;;;;;;6.00;89.22;94409.00;4981006;28;20059;-45
2023/01/04 09:44:02;;;;;;;32.97;22.08;;;;;;;6.07;89.34;94409.28;4983471;28;20029;-44
2023/01/04 09:46:47;;;;;;;29.70;18.33;;;;;;;5.92;89.81;94411.47;4998871;28;20797;-43
2023/01/04 09:49:23;;;;;;;28.48;18.60;;;;;;;5.94;90.15;94414.47;4984153;28;20488;-44
2023/01/04 09:51:58;;;;;;;40.95;23.52;;;;;;;6.10;89.63;94415.75;4983659;28;20174;-44
2023/01/04 09:54:29;;;;;;;41.78;20.20;;;;;;;6.17;89.44;94417.25;4990644;28;20030;-45
2023/01/04 09:56:59;;;;;;;48.08;25.85;;;;;;;6.09;89.73;94416.97;4983177;28;20057;-44
2023/01/04 09:59:32;;;;;;;51.42;27.85;;;;;;;5.89;91.05;94392.56;4981115;28;20026;-44
2023/01/04 10:02:02;;;;;;;56.92;32.53;;;;;;;6.29;90.24;94405.81;4982425;28;20040;-44
2023/01/04 10:04:47;;;;;;;41.45;23.27;;;;;;;6.45;88.72;94412.53;4986038;28;20034;-44
2023/01/04 10:07:31;;;;;;;36.60;21.33;;;;;;;6.28;88.95;94420.03;4986373;28;20034;-43
2023/01/04 10:09:57;;;;;;;29.85;21.35;;;;;;;6.25;89.78;94410.03;4990638;28;20041;-44
2023/01/04 10:12:26;;;;;;;24.58;17.83;;;;;;;6.29;90.05;94416.00;4983191;28;20022;-44
2023/01/04 10:15:48;;;;;;;30.52;20.58;;;;;;;6.47;89.38;94394.34;4983488;28;20560;-45
2023/01/04 10:18:22;;;;;;;40.63;25.55;;;;;;;6.68;88.69;94403.81;5005829;28;20080;-44
2023/01/04 10:20:53;;;;;;;30.58;18.80;;;;;;;6.88;88.07;94400.78;5016361;28;20117;-44
2023/01/04 10:23:37;;;;;;;36.33;20.55;;;;;;;7.18;86.57;94402.97;4982119;28;20124;-44
2023/01/04 10:26:11;;;;;;;27.33;17.77;;;;;;;7.37;85.03;94392.91;4983845;28;20217;-46
2023/01/04 10:29:01;;;;;;;31.05;16.95;;;;;;;7.48;83.95;94392.88;4979689;28;20045;-45
2023/01/04 10:31:41;;;;;;;24.02;15.50;;;;;;;7.61;82.78;94391.06;4983303;28;20468;-45
2023/01/04 10:34:26;;;;;;;18.50;13.93;;;;;;;7.54;82.23;94386.09;4983818;28;20034;-44
2023/01/04 10:36:58;;;;;;;20.30;15.10;;;;;;;7.64;82.39;94387.28;4982765;28;20124;-45
2023/01/04 10:39:26;;;;;;;21.58;15.60;;;;;;;7.70;81.92;94383.78;4976918;28;20045;-44
2023/01/04 10:42:13;;;;;;;22.10;15.52;;;;;;;7.67;81.76;94388.28;4974468;28;20045;-45
2023/01/04 10:44:42;;;;;;;35.90;21.25;;;;;;;7.58;81.64;94386.56;4989047;28;20061;-43
2023/01/04 10:47:25;;;;;;;23.45;16.05;;;;;;;7.61;81.38;94393.81;4982450;28;20544;-44
2023/01/04 10:49:54;;;;;;;25.20;16.00;;;;;;;7.57;82.18;94395.34;4982811;28;20052;-45
2023/01/04 10:52:26;;;;;;;24.65;15.75;;;;;;;7.50;82.43;94393.09;4984757;28;20044;-44
2023/01/04 10:54:56;;;;;;;21.48;16.63;;;;;;;7.88;80.91;94383.94;4988758;28;20061;-45
2023/01/04 10:57:34;;;;;;;26.13;16.38;;;;;;;7.85;80.88;94381.44;4981090;28;20031;-44
2023/01/04 11:00:06;;;;;;;35.92;18.20;;;;;;;8.06;80.57;94377.06;4998869;28;20857;-44
2023/01/04 11:02:47;;;;;;;26.10;18.67;;;;;;;8.22;80.11;94374.22;4980386;28;20062;-44
2023/01/04 11:05:33;;;;;;;28.27;17.60;;;;;;;8.13;79.58;94387.53;4980748;28;20063;-45
2023/01/04 11:08:01;;;;;;;26.83;17.60;;;;;;;8.16;79.57;94383.78;4978722;28;20048;-45
2023/01/04 11:10:38;;;;;;;28.23;18.03;;;;;;;7.91;79.72;94379.41;4987104;28;20034;-44
2023/01/04 11:13:05;;;;;;;32.22;19.95;;;;;;;7.81;80.78;94386.47;5000414;28;20030;-44
2023/01/04 11:15:30;;;;;;;25.02;17.60;;;;;;;7.57;81.33;94359.63;4982641;28;20083;-46
2023/01/04 11:17:56;;;;;;;26.67;15.93;;;;;;;7.85;81.15;94378.69;4989580;28;20031;-44
2023/01/04 11:20:22;;;;;;;22.80;15.55;;;;;;;8.00;80.76;94362.59;4982979;28;20088;-43
2023/01/04 11:22:54;;;;;;;23.15;15.88;;;;;;;8.27;79.45;94367.22;4984526;28;20039;-44
2023/01/04 11:25:20;;;;;;;24.67;18.33;;;;;;;8.08;79.56;94358.81;4981085;28;20039;-44
2023/01/04 11:27:50;;;;;;;27.83;19.05;;;;;;;8.13;79.50;94358.03;5012132;28;20450;-43
2023/01/04 11:30:23;;;;;;;34.83;22.58;;;;;;;8.00;80.23;94366.13;4998786;28;20042;-43
2023/01/04 11:32:51;;;;;;;29.35;20.63;;;;;;;7.94;80.61;94353.66;4980113;28;20108;-43
2023/01/04 11:35:36;;;;;;;32.47;21.37;;;;;;;7.74;80.91;94357.53;4981608;28;20454;-43
2023/01/04 11:38:22;;;;;;;29.45;17.52;;;;;;;7.55;82.24;94353.88;4976308;28;20108;-43
2023/01/04 11:40:58;;;;;;;26.77;17.25;;;;;;;7.42;82.44;94354.44;4978965;28;20029;-45
2023/01/04 11:43:26;;;;;;;29.27;18.80;;;;;;;7.43;82.83;94358.66;4979014;28;20807;-42
2023/01/04 11:46:01;;;;;;;26.63;18.52;;;;;;;7.42;82.46;94345.44;4983542;28;20427;-43
2023/01/04 11:48:39;;;;;;;28.98;19.05;;;;;;;7.50;83.27;94354.66;4982454;28;20022;-44
2023/01/04 11:51:20;;;;;;;31.85;19.38;;;;;;;7.54;82.99;94350.38;4980514;28;20874;-43
2023/01/04 11:53:56;;;;;;;26.67;17.38;;;;;;;7.57;82.84;94343.88;4982834;28;20053;-44
2023/01/04 11:56:23;;;;;;;30.58;20.85;;;;;;;7.45;83.26;94345.16;4981856;28;20559;-43
2023/01/04 11:59:02;;;;;;;26.98;16.42;;;;;;;7.49;83.06;94342.16;4984044;28;20045;-43
2023/01/04 12:01:28;;;;;;;25.02;17.20;;;;;;;7.44;83.25;94343.69;4982454;28;20476;-43
2023/01/04 12:03:53;;;;;;;22.70;15.10;;;;;;;7.58;82.43;94336.34;4985636;28;20034;-44
2023/01/04 12:06:35;;;;;;;30.67;17.60;;;;;;;7.59;82.24;94329.63;4985166;28;20038;-44
2023/01/04 12:09:00;;;;;;;25.35;16.50;;;;;;;7.62;82.19;94334.84;4978960;28;20034;-45
2023/01/04 12:11:32;;;;;;;26.05;17.20;;;;;;;7.73;82.14;94336.81;4982136;28;20035;-44
2023/01/04 12:13:58;;;;;;;38.05;22.02;;;;;;;7.70;82.14;94329.56;4974838;28;20034;-44
2023/01/04 12:16:23;;;;;;;23.23;15.65;;;;;;;7.64;81.35;94329.56;4996821;28;20031;-43